sensor_id;sensor_type;location;lat;lon;timestamp;temperature;humidity
27559;DHT22;15002;52.028;5.670;2024-01-27T00:00:06;5.90;99.90
27559;DHT22;15002;52.028;5.670;2024-01-27T00:02:32;5.90;99.90
27559;DHT22;15002;52.028;5.670;2024-01-27T00:04:57;5.90;99.90
27559;DHT22;15002;52.028;5.670;2024-01-27T00:07:23;6.00;99.90
27559;DHT22;15002;52.028;5.670;2024-01-27T00:09:50;5.80;99.90
27559;DHT22;15002;52.028;5.670;2024-01-27T00:12:16;5.80;99.90
27559;DHT22;15002;52.028;5.670;2024-01-27T00:14:42;5.90;99.90
27559;DHT22;15002;52.028;5.670;2024-01-27T00:17:09;5.90;99.90
27559;DHT22;15002;52.028;5.670;2024-01-27T00:19:34;5.90;99.90
27559;DHT22;15002;52.028;5.670;2024-01-27T00:22:00;5.90;99.90
27559;DHT22;15002;52.028;5.670;2024-01-27T00:24:26;5.90;99.90
27559;DHT22;15002;52.028;5.670;2024-01-27T00:26:51;5.90;99.90
27559;DHT22;15002;52.028;5.670;2024-01-27T00:29:17;5.90;99.90
27559;DHT22;15002;52.028;5.670;2024-01-27T00:31:42;5.90;99.90
27559;DHT22;15002;52.028;5.670;2024-01-27T00:34:08;5.90;99.90
27559;DHT22;15002;52.028;5.670;2024-01-27T00:36:34;5.90;99.90
27559;DHT22;15002;52.028;5.670;2024-01-27T00:39:03;6.00;99.90
27559;DHT22;15002;52.028;5.670;2024-01-27T00:41:28;6.00;99.90
27559;DHT22;15002;52.028;5.670;2024-01-27T00:43:54;5.90;99.90
27559;DHT22;15002;52.028;5.670;2024-01-27T00:46:20;5.70;99.90
27559;DHT22;15002;52.028;5.670;2024-01-27T00:48:45;5.70;99.90
27559;DHT22;15002;52.028;5.670;2024-01-27T00:51:11;5.70;99.90
27559;DHT22;15002;52.028;5.670;2024-01-27T00:53:37;5.80;99.90
27559;DHT22;15002;52.028;5.670;2024-01-27T00:56:02;5.80;99.90
27559;DHT22;15002;52.028;5.670;2024-01-27T00:58:28;5.80;99.90
27559;DHT22;15002;52.028;5.670;2024-01-27T01:00:54;5.70;99.90
27559;DHT22;15002;52.028;5.670;2024-01-27T01:03:19;5.60;99.90
27559;DHT22;15002;52.028;5.670;2024-01-27T01:05:45;5.60;99.90
27559;DHT22;15002;52.028;5.670;2024-01-27T01:08:10;5.60;99.90
27559;DHT22;15002;52.028;5.670;2024-01-27T01:10:36;5.70;99.90
27559;DHT22;15002;52.028;5.670;2024-01-27T01:13:02;5.60;99.90
27559;DHT22;15002;52.028;5.670;2024-01-27T01:15:27;5.50;99.90
27559;DHT22;15002;52.028;5.670;2024-01-27T01:17:53;5.60;99.90
27559;DHT22;15002;52.028;5.670;2024-01-27T01:20:18;5.70;99.90
27559;DHT22;15002;52.028;5.670;2024-01-27T01:22:44;5.70;99.90
27559;DHT22;15002;52.028;5.670;2024-01-27T01:25:10;5.60;99.90
27559;DHT22;15002;52.028;5.670;2024-01-27T01:27:35;5.60;99.90
27559;DHT22;15002;52.028;5.670;2024-01-27T01:30:01;5.70;99.90
27559;DHT22;15002;52.028;5.670;2024-01-27T01:32:26;5.90;99.90
27559;DHT22;15002;52.028;5.670;2024-01-27T01:34:52;5.50;99.90
27559;DHT22;15002;52.028;5.670;2024-01-27T01:37:18;5.40;99.90
27559;DHT22;15002;52.028;5.670;2024-01-27T01:39:43;5.30;99.90
27559;DHT22;15002;52.028;5.670;2024-01-27T01:42:09;5.40;99.90
27559;DHT22;15002;52.028;5.670;2024-01-27T01:44:34;5.30;99.90
27559;DHT22;15002;52.028;5.670;2024-01-27T01:47:00;5.20;99.90
27559;DHT22;15002;52.028;5.670;2024-01-27T01:49:26;5.30;99.90
27559;DHT22;15002;52.028;5.670;2024-01-27T01:51:52;5.20;99.90
27559;DHT22;15002;52.028;5.670;2024-01-27T01:54:18;5.30;99.90
27559;DHT22;15002;52.028;5.670;2024-01-27T01:56:44;5.40;99.90
27559;DHT22;15002;52.028;5.670;2024-01-27T01:59:10;5.40;99.90
27559;DHT22;15002;52.028;5.670;2024-01-27T02:01:36;5.90;99.90
27559;DHT22;15002;52.028;5.670;2024-01-27T02:04:04;6.20;99.90
27559;DHT22;15002;52.028;5.670;2024-01-27T02:06:30;6.10;99.90
27559;DHT22;15002;52.028;5.670;2024-01-27T02:08:56;5.80;99.90
27559;DHT22;15002;52.028;5.670;2024-01-27T02:11:21;5.70;99.90
27559;DHT22;15002;52.028;5.670;2024-01-27T02:13:48;5.50;99.90
27559;DHT22;15002;52.028;5.670;2024-01-27T02:16:13;5.20;99.90
27559;DHT22;15002;52.028;5.670;2024-01-27T02:18:39;5.10;99.90
27559;DHT22;15002;52.028;5.670;2024-01-27T02:21:04;5.10;99.90
27559;DHT22;15002;52.028;5.670;2024-01-27T02:23:30;5.00;99.90
27559;DHT22;15002;52.028;5.670;2024-01-27T02:25:56;5.10;99.90
27559;DHT22;15002;52.028;5.670;2024-01-27T02:28:23;5.10;99.90
27559;DHT22;15002;52.028;5.670;2024-01-27T02:30:49;5.10;99.90
27559;DHT22;15002;52.028;5.670;2024-01-27T02:33:14;5.10;99.90
27559;DHT22;15002;52.028;5.670;2024-01-27T02:35:40;5.50;99.90
27559;DHT22;15002;52.028;5.670;2024-01-27T02:38:06;5.70;99.90
27559;DHT22;15002;52.028;5.670;2024-01-27T02:40:31;5.40;99.90
27559;DHT22;15002;52.028;5.670;2024-01-27T02:42:57;5.20;99.90
27559;DHT22;15002;52.028;5.670;2024-01-27T02:45:22;5.10;99.90
27559;DHT22;15002;52.028;5.670;2024-01-27T02:47:48;5.20;99.90
27559;DHT22;15002;52.028;5.670;2024-01-27T02:50:14;5.30;99.90
27559;DHT22;15002;52.028;5.670;2024-01-27T02:52:40;5.20;99.90
27559;DHT22;15002;52.028;5.670;2024-01-27T02:55:06;5.10;99.90
27559;DHT22;15002;52.028;5.670;2024-01-27T02:57:32;5.00;99.90
27559;DHT22;15002;52.028;5.670;2024-01-27T02:59:57;5.00;99.90
27559;DHT22;15002;52.028;5.670;2024-01-27T03:02:23;5.00;99.90
27559;DHT22;15002;52.028;5.670;2024-01-27T03:04:49;4.80;99.90
27559;DHT22;15002;52.028;5.670;2024-01-27T03:07:14;4.80;99.90
27559;DHT22;15002;52.028;5.670;2024-01-27T03:09:40;4.80;99.90
27559;DHT22;15002;52.028;5.670;2024-01-27T03:12:06;4.80;99.90
27559;DHT22;15002;52.028;5.670;2024-01-27T03:14:31;4.80;99.90
27559;DHT22;15002;52.028;5.670;2024-01-27T03:16:58;4.80;99.90
27559;DHT22;15002;52.028;5.670;2024-01-27T03:19:24;4.80;99.90
27559;DHT22;15002;52.028;5.670;2024-01-27T03:21:49;4.80;99.90
27559;DHT22;15002;52.028;5.670;2024-01-27T03:24:15;4.80;99.90
27559;DHT22;15002;52.028;5.670;2024-01-27T03:26:40;4.70;99.90
27559;DHT22;15002;52.028;5.670;2024-01-27T03:29:06;4.70;99.90
27559;DHT22;15002;52.028;5.670;2024-01-27T03:31:35;4.70;99.90
27559;DHT22;15002;52.028;5.670;2024-01-27T03:34:01;4.80;99.90
27559;DHT22;15002;52.028;5.670;2024-01-27T03:36:26;4.80;99.90
27559;DHT22;15002;52.028;5.670;2024-01-27T03:38:52;4.70;99.90
27559;DHT22;15002;52.028;5.670;2024-01-27T03:41:18;4.70;99.90
27559;DHT22;15002;52.028;5.670;2024-01-27T03:43:44;4.80;99.90
27559;DHT22;15002;52.028;5.670;2024-01-27T03:46:09;4.80;99.90
27559;DHT22;15002;52.028;5.670;2024-01-27T03:48:35;4.70;99.90
27559;DHT22;15002;52.028;5.670;2024-01-27T03:51:01;4.70;99.90
27559;DHT22;15002;52.028;5.670;2024-01-27T03:53:27;4.70;99.90
27559;DHT22;15002;52.028;5.670;2024-01-27T03:55:53;4.80;99.90
27559;DHT22;15002;52.028;5.670;2024-01-27T03:58:19;4.80;99.90
27559;DHT22;15002;52.028;5.670;2024-01-27T04:00:44;4.80;99.90
27559;DHT22;15002;52.028;5.670;2024-01-27T04:03:10;4.90;99.90
27559;DHT22;15002;52.028;5.670;2024-01-27T04:05:36;4.90;99.90
27559;DHT22;15002;52.028;5.670;2024-01-27T04:08:02;4.80;99.90
27559;DHT22;15002;52.028;5.670;2024-01-27T04:10:27;4.70;99.90
27559;DHT22;15002;52.028;5.670;2024-01-27T04:12:53;4.70;99.90
27559;DHT22;15002;52.028;5.670;2024-01-27T04:15:19;4.70;99.90
27559;DHT22;15002;52.028;5.670;2024-01-27T04:17:44;4.70;99.90
27559;DHT22;15002;52.028;5.670;2024-01-27T04:20:11;4.60;99.90
27559;DHT22;15002;52.028;5.670;2024-01-27T04:22:36;4.60;99.90
27559;DHT22;15002;52.028;5.670;2024-01-27T04:25:02;4.70;99.90
27559;DHT22;15002;52.028;5.670;2024-01-27T04:27:29;4.70;99.90
27559;DHT22;15002;52.028;5.670;2024-01-27T04:29:54;4.70;99.90
27559;DHT22;15002;52.028;5.670;2024-01-27T04:32:20;4.70;99.90
27559;DHT22;15002;52.028;5.670;2024-01-27T04:34:48;4.70;99.90
27559;DHT22;15002;52.028;5.670;2024-01-27T04:37:13;4.70;99.90
27559;DHT22;15002;52.028;5.670;2024-01-27T04:39:39;4.60;99.90
27559;DHT22;15002;52.028;5.670;2024-01-27T04:42:05;4.70;99.90
27559;DHT22;15002;52.028;5.670;2024-01-27T04:44:34;4.70;99.90
27559;DHT22;15002;52.028;5.670;2024-01-27T04:47:00;4.80;99.90
27559;DHT22;15002;52.028;5.670;2024-01-27T04:49:26;4.70;99.90
27559;DHT22;15002;52.028;5.670;2024-01-27T04:51:51;4.60;99.90
27559;DHT22;15002;52.028;5.670;2024-01-27T04:54:17;4.60;99.90
27559;DHT22;15002;52.028;5.670;2024-01-27T04:56:42;4.60;99.90
27559;DHT22;15002;52.028;5.670;2024-01-27T04:59:08;4.60;99.90
27559;DHT22;15002;52.028;5.670;2024-01-27T05:01:34;4.50;99.90
27559;DHT22;15002;52.028;5.670;2024-01-27T05:03:59;4.40;99.90
27559;DHT22;15002;52.028;5.670;2024-01-27T05:06:25;4.40;99.90
27559;DHT22;15002;52.028;5.670;2024-01-27T05:08:51;4.30;99.90
27559;DHT22;15002;52.028;5.670;2024-01-27T05:11:25;4.30;99.90
27559;DHT22;15002;52.028;5.670;2024-01-27T05:13:52;4.40;99.90
27559;DHT22;15002;52.028;5.670;2024-01-27T05:16:17;4.20;99.90
27559;DHT22;15002;52.028;5.670;2024-01-27T05:18:43;4.20;99.90
27559;DHT22;15002;52.028;5.670;2024-01-27T05:21:08;4.20;99.90
27559;DHT22;15002;52.028;5.670;2024-01-27T05:23:34;4.30;99.90
27559;DHT22;15002;52.028;5.670;2024-01-27T05:26:00;4.30;99.90
27559;DHT22;15002;52.028;5.670;2024-01-27T05:28:25;4.20;99.90
27559;DHT22;15002;52.028;5.670;2024-01-27T05:30:51;4.30;99.90
27559;DHT22;15002;52.028;5.670;2024-01-27T05:33:16;4.30;99.90
27559;DHT22;15002;52.028;5.670;2024-01-27T05:35:42;4.30;99.90
27559;DHT22;15002;52.028;5.670;2024-01-27T05:38:08;4.30;99.90
27559;DHT22;15002;52.028;5.670;2024-01-27T05:40:34;4.30;99.90
27559;DHT22;15002;52.028;5.670;2024-01-27T05:42:59;4.30;99.90
27559;DHT22;15002;52.028;5.670;2024-01-27T05:45:25;4.30;99.90
27559;DHT22;15002;52.028;5.670;2024-01-27T05:47:52;4.20;99.90
27559;DHT22;15002;52.028;5.670;2024-01-27T05:50:17;4.30;99.90
27559;DHT22;15002;52.028;5.670;2024-01-27T05:52:43;4.30;99.90
27559;DHT22;15002;52.028;5.670;2024-01-27T05:55:09;4.40;99.90
27559;DHT22;15002;52.028;5.670;2024-01-27T05:57:36;4.30;99.90
27559;DHT22;15002;52.028;5.670;2024-01-27T06:00:02;4.40;99.90
27559;DHT22;15002;52.028;5.670;2024-01-27T06:02:28;4.60;99.90
27559;DHT22;15002;52.028;5.670;2024-01-27T06:04:54;4.60;99.90
27559;DHT22;15002;52.028;5.670;2024-01-27T06:07:19;4.40;99.90
27559;DHT22;15002;52.028;5.670;2024-01-27T06:09:45;4.20;99.90
27559;DHT22;15002;52.028;5.670;2024-01-27T06:12:10;4.10;99.90
27559;DHT22;15002;52.028;5.670;2024-01-27T06:14:36;4.10;99.90
27559;DHT22;15002;52.028;5.670;2024-01-27T06:17:04;4.00;99.90
27559;DHT22;15002;52.028;5.670;2024-01-27T06:19:30;4.00;99.90
27559;DHT22;15002;52.028;5.670;2024-01-27T06:21:56;4.00;99.90
27559;DHT22;15002;52.028;5.670;2024-01-27T06:24:22;4.10;99.90
27559;DHT22;15002;52.028;5.670;2024-01-27T06:26:48;4.10;99.90
27559;DHT22;15002;52.028;5.670;2024-01-27T06:29:14;4.00;99.90
27559;DHT22;15002;52.028;5.670;2024-01-27T06:31:39;4.00;99.90
27559;DHT22;15002;52.028;5.670;2024-01-27T06:34:05;4.00;99.90
27559;DHT22;15002;52.028;5.670;2024-01-27T06:36:31;4.00;99.90
27559;DHT22;15002;52.028;5.670;2024-01-27T06:38:58;4.00;99.90
27559;DHT22;15002;52.028;5.670;2024-01-27T06:41:23;4.00;99.90
27559;DHT22;15002;52.028;5.670;2024-01-27T06:43:49;4.00;99.90
27559;DHT22;15002;52.028;5.670;2024-01-27T06:46:14;4.00;99.90
27559;DHT22;15002;52.028;5.670;2024-01-27T06:48:40;4.00;99.90
27559;DHT22;15002;52.028;5.670;2024-01-27T06:51:06;4.10;99.90
27559;DHT22;15002;52.028;5.670;2024-01-27T06:53:31;3.90;99.90
27559;DHT22;15002;52.028;5.670;2024-01-27T06:55:57;3.90;99.90
27559;DHT22;15002;52.028;5.670;2024-01-27T06:58:22;3.90;99.90
27559;DHT22;15002;52.028;5.670;2024-01-27T07:00:48;4.00;99.90
27559;DHT22;15002;52.028;5.670;2024-01-27T07:03:14;4.10;99.90
27559;DHT22;15002;52.028;5.670;2024-01-27T07:05:40;4.20;99.90
27559;DHT22;15002;52.028;5.670;2024-01-27T07:08:07;4.00;99.90
27559;DHT22;15002;52.028;5.670;2024-01-27T07:10:36;3.90;99.90
27559;DHT22;15002;52.028;5.670;2024-01-27T07:13:02;4.00;99.90
27559;DHT22;15002;52.028;5.670;2024-01-27T07:15:27;4.10;99.90
27559;DHT22;15002;52.028;5.670;2024-01-27T07:17:53;4.30;99.90
27559;DHT22;15002;52.028;5.670;2024-01-27T07:20:19;4.30;99.90
27559;DHT22;15002;52.028;5.670;2024-01-27T07:22:49;4.20;99.90
27559;DHT22;15002;52.028;5.670;2024-01-27T07:25:15;4.10;99.90
27559;DHT22;15002;52.028;5.670;2024-01-27T07:27:41;4.10;99.90
27559;DHT22;15002;52.028;5.670;2024-01-27T07:30:07;4.00;99.90
27559;DHT22;15002;52.028;5.670;2024-01-27T07:32:34;4.10;99.90
27559;DHT22;15002;52.028;5.670;2024-01-27T07:35:02;4.30;99.90
27559;DHT22;15002;52.028;5.670;2024-01-27T07:37:28;4.10;99.90
27559;DHT22;15002;52.028;5.670;2024-01-27T07:39:53;3.90;99.90
27559;DHT22;15002;52.028;5.670;2024-01-27T07:42:19;4.30;99.90
27559;DHT22;15002;52.028;5.670;2024-01-27T07:44:45;4.60;99.90
27559;DHT22;15002;52.028;5.670;2024-01-27T07:47:10;4.60;99.90
27559;DHT22;15002;52.028;5.670;2024-01-27T07:49:36;4.70;99.90
27559;DHT22;15002;52.028;5.670;2024-01-27T07:52:01;4.80;99.90
27559;DHT22;15002;52.028;5.670;2024-01-27T07:54:27;5.00;99.90
27559;DHT22;15002;52.028;5.670;2024-01-27T07:56:54;5.10;99.90
27559;DHT22;15002;52.028;5.670;2024-01-27T07:59:20;5.10;99.90
27559;DHT22;15002;52.028;5.670;2024-01-27T08:01:46;5.10;99.90
27559;DHT22;15002;52.028;5.670;2024-01-27T08:04:11;5.20;99.90
27559;DHT22;15002;52.028;5.670;2024-01-27T08:06:48;5.40;99.90
27559;DHT22;15002;52.028;5.670;2024-01-27T08:09:14;5.30;99.90
27559;DHT22;15002;52.028;5.670;2024-01-27T08:11:40;5.40;99.90
27559;DHT22;15002;52.028;5.670;2024-01-27T08:14:05;5.50;99.90
27559;DHT22;15002;52.028;5.670;2024-01-27T08:16:31;5.70;99.90
27559;DHT22;15002;52.028;5.670;2024-01-27T08:18:57;5.70;99.90
27559;DHT22;15002;52.028;5.670;2024-01-27T08:21:22;5.80;99.90
27559;DHT22;15002;52.028;5.670;2024-01-27T08:23:48;5.90;99.90
27559;DHT22;15002;52.028;5.670;2024-01-27T08:26:14;5.90;99.90
27559;DHT22;15002;52.028;5.670;2024-01-27T08:28:40;6.00;99.90
27559;DHT22;15002;52.028;5.670;2024-01-27T08:31:06;6.20;99.90
27559;DHT22;15002;52.028;5.670;2024-01-27T08:33:32;6.20;99.90
27559;DHT22;15002;52.028;5.670;2024-01-27T08:35:57;6.30;99.90
27559;DHT22;15002;52.028;5.670;2024-01-27T08:38:23;6.40;99.90
27559;DHT22;15002;52.028;5.670;2024-01-27T08:40:48;6.60;99.90
27559;DHT22;15002;52.028;5.670;2024-01-27T08:43:14;6.70;99.90
27559;DHT22;15002;52.028;5.670;2024-01-27T08:45:40;6.90;99.90
27559;DHT22;15002;52.028;5.670;2024-01-27T08:48:06;7.10;99.90
27559;DHT22;15002;52.028;5.670;2024-01-27T08:50:32;7.30;99.90
27559;DHT22;15002;52.028;5.670;2024-01-27T08:52:58;7.40;99.90
27559;DHT22;15002;52.028;5.670;2024-01-27T08:55:24;7.60;99.90
27559;DHT22;15002;52.028;5.670;2024-01-27T08:57:52;7.70;99.90
27559;DHT22;15002;52.028;5.670;2024-01-27T09:00:18;7.70;99.90
27559;DHT22;15002;52.028;5.670;2024-01-27T09:02:44;7.70;99.90
27559;DHT22;15002;52.028;5.670;2024-01-27T09:05:10;8.00;99.90
27559;DHT22;15002;52.028;5.670;2024-01-27T09:07:35;7.80;99.90
27559;DHT22;15002;52.028;5.670;2024-01-27T09:10:02;8.10;99.90
27559;DHT22;15002;52.028;5.670;2024-01-27T09:12:27;8.30;99.90
27559;DHT22;15002;52.028;5.670;2024-01-27T09:14:53;8.40;99.90
27559;DHT22;15002;52.028;5.670;2024-01-27T09:17:21;8.40;99.90
27559;DHT22;15002;52.028;5.670;2024-01-27T09:19:47;8.30;99.90
27559;DHT22;15002;52.028;5.670;2024-01-27T09:22:13;8.00;99.90
27559;DHT22;15002;52.028;5.670;2024-01-27T09:24:39;8.10;99.90
27559;DHT22;15002;52.028;5.670;2024-01-27T09:27:05;8.30;99.90
27559;DHT22;15002;52.028;5.670;2024-01-27T09:29:30;8.70;99.90
27559;DHT22;15002;52.028;5.670;2024-01-27T09:31:56;8.60;99.90
27559;DHT22;15002;52.028;5.670;2024-01-27T09:34:21;8.60;99.90
27559;DHT22;15002;52.028;5.670;2024-01-27T09:36:47;8.50;99.90
27559;DHT22;15002;52.028;5.670;2024-01-27T09:39:13;8.60;99.90
27559;DHT22;15002;52.028;5.670;2024-01-27T09:41:39;8.80;99.90
27559;DHT22;15002;52.028;5.670;2024-01-27T09:44:05;9.00;99.90
27559;DHT22;15002;52.028;5.670;2024-01-27T09:46:32;9.00;99.90
27559;DHT22;15002;52.028;5.670;2024-01-27T09:48:58;9.40;99.90
27559;DHT22;15002;52.028;5.670;2024-01-27T09:51:25;9.50;99.90
27559;DHT22;15002;52.028;5.670;2024-01-27T09:53:54;9.40;99.90
27559;DHT22;15002;52.028;5.670;2024-01-27T09:56:19;9.40;99.90
27559;DHT22;15002;52.028;5.670;2024-01-27T09:58:47;9.10;99.90
27559;DHT22;15002;52.028;5.670;2024-01-27T10:01:16;9.10;99.90
27559;DHT22;15002;52.028;5.670;2024-01-27T10:03:43;9.00;99.90
27559;DHT22;15002;52.028;5.670;2024-01-27T10:06:10;9.10;99.90
27559;DHT22;15002;52.028;5.670;2024-01-27T10:08:36;9.10;99.90
27559;DHT22;15002;52.028;5.670;2024-01-27T10:11:09;9.10;99.90
27559;DHT22;15002;52.028;5.670;2024-01-27T10:13:36;9.10;99.90
27559;DHT22;15002;52.028;5.670;2024-01-27T10:16:02;9.20;99.90
27559;DHT22;15002;52.028;5.670;2024-01-27T10:18:28;9.20;99.90
27559;DHT22;15002;52.028;5.670;2024-01-27T10:20:54;9.40;99.90
27559;DHT22;15002;52.028;5.670;2024-01-27T10:23:20;9.40;99.90
27559;DHT22;15002;52.028;5.670;2024-01-27T10:25:45;9.90;99.90
27559;DHT22;15002;52.028;5.670;2024-01-27T10:28:11;9.90;99.90
27559;DHT22;15002;52.028;5.670;2024-01-27T10:30:38;10.00;99.90
27559;DHT22;15002;52.028;5.670;2024-01-27T10:33:03;10.00;99.90
27559;DHT22;15002;52.028;5.670;2024-01-27T10:35:29;10.10;99.90
27559;DHT22;15002;52.028;5.670;2024-01-27T10:37:55;10.40;99.90
27559;DHT22;15002;52.028;5.670;2024-01-27T10:40:22;10.20;99.90
27559;DHT22;15002;52.028;5.670;2024-01-27T10:45:36;9.90;99.90
27559;DHT22;15002;52.028;5.670;2024-01-27T10:48:03;9.80;99.90
27559;DHT22;15002;52.028;5.670;2024-01-27T10:50:29;9.70;99.90
27559;DHT22;15002;52.028;5.670;2024-01-27T10:53:00;9.80;99.90
27559;DHT22;15002;52.028;5.670;2024-01-27T10:55:27;9.80;99.90
27559;DHT22;15002;52.028;5.670;2024-01-27T10:57:54;9.80;99.90
27559;DHT22;15002;52.028;5.670;2024-01-27T11:00:21;10.10;99.90
27559;DHT22;15002;52.028;5.670;2024-01-27T11:02:48;10.40;99.90
27559;DHT22;15002;52.028;5.670;2024-01-27T11:05:19;10.10;99.90
27559;DHT22;15002;52.028;5.670;2024-01-27T11:07:46;10.00;99.90
27559;DHT22;15002;52.028;5.670;2024-01-27T11:10:12;10.30;99.90
27559;DHT22;15002;52.028;5.670;2024-01-27T11:12:38;10.40;99.90
27559;DHT22;15002;52.028;5.670;2024-01-27T11:15:06;10.20;99.90
27559;DHT22;15002;52.028;5.670;2024-01-27T11:17:41;10.20;99.90
27559;DHT22;15002;52.028;5.670;2024-01-27T11:20:10;10.10;99.90
27559;DHT22;15002;52.028;5.670;2024-01-27T11:22:41;10.10;99.90
27559;DHT22;15002;52.028;5.670;2024-01-27T11:27:40;10.00;99.90
27559;DHT22;15002;52.028;5.670;2024-01-27T11:30:25;10.00;99.90
27559;DHT22;15002;52.028;5.670;2024-01-27T11:32:54;10.10;99.90
27559;DHT22;15002;52.028;5.670;2024-01-27T11:35:19;10.50;99.90
27559;DHT22;15002;52.028;5.670;2024-01-27T11:37:45;10.30;99.90
27559;DHT22;15002;52.028;5.670;2024-01-27T11:40:11;9.90;99.90
27559;DHT22;15002;52.028;5.670;2024-01-27T11:42:37;9.70;99.90
27559;DHT22;15002;52.028;5.670;2024-01-27T11:45:03;9.80;99.90
27559;DHT22;15002;52.028;5.670;2024-01-27T11:47:30;9.80;99.90
27559;DHT22;15002;52.028;5.670;2024-01-27T11:49:56;9.80;99.90
27559;DHT22;15002;52.028;5.670;2024-01-27T11:52:24;9.90;99.90
27559;DHT22;15002;52.028;5.670;2024-01-27T11:55:00;10.00;99.90
27559;DHT22;15002;52.028;5.670;2024-01-27T11:57:26;9.90;99.90
27559;DHT22;15002;52.028;5.670;2024-01-27T11:59:53;9.60;99.90
27559;DHT22;15002;52.028;5.670;2024-01-27T12:02:19;9.50;99.90
27559;DHT22;15002;52.028;5.670;2024-01-27T12:04:46;9.80;99.90
27559;DHT22;15002;52.028;5.670;2024-01-27T12:07:12;9.70;99.90
27559;DHT22;15002;52.028;5.670;2024-01-27T12:09:38;9.70;99.90
27559;DHT22;15002;52.028;5.670;2024-01-27T12:12:05;10.00;99.90
27559;DHT22;15002;52.028;5.670;2024-01-27T12:14:46;10.20;99.90
27559;DHT22;15002;52.028;5.670;2024-01-27T12:17:12;10.10;99.90
27559;DHT22;15002;52.028;5.670;2024-01-27T12:19:38;10.00;99.90
27559;DHT22;15002;52.028;5.670;2024-01-27T12:22:05;10.00;99.90
27559;DHT22;15002;52.028;5.670;2024-01-27T12:24:45;9.90;99.90
27559;DHT22;15002;52.028;5.670;2024-01-27T12:27:11;10.00;99.90
27559;DHT22;15002;52.028;5.670;2024-01-27T12:29:37;10.10;99.90
27559;DHT22;15002;52.028;5.670;2024-01-27T12:32:02;10.20;99.90
27559;DHT22;15002;52.028;5.670;2024-01-27T12:34:29;10.10;99.90
27559;DHT22;15002;52.028;5.670;2024-01-27T12:36:55;10.10;99.90
27559;DHT22;15002;52.028;5.670;2024-01-27T12:39:21;10.00;99.90
27559;DHT22;15002;52.028;5.670;2024-01-27T12:41:46;10.20;99.90
27559;DHT22;15002;52.028;5.670;2024-01-27T12:44:12;10.20;99.90
27559;DHT22;15002;52.028;5.670;2024-01-27T12:46:38;10.10;99.90
27559;DHT22;15002;52.028;5.670;2024-01-27T12:49:03;10.00;99.90
27559;DHT22;15002;52.028;5.670;2024-01-27T12:51:29;10.00;99.90
27559;DHT22;15002;52.028;5.670;2024-01-27T12:53:55;10.00;99.90
27559;DHT22;15002;52.028;5.670;2024-01-27T12:56:21;10.20;99.90
27559;DHT22;15002;52.028;5.670;2024-01-27T12:58:46;10.20;99.90
27559;DHT22;15002;52.028;5.670;2024-01-27T13:01:12;10.50;99.90
27559;DHT22;15002;52.028;5.670;2024-01-27T13:03:39;10.30;99.90
27559;DHT22;15002;52.028;5.670;2024-01-27T13:06:05;10.20;99.90
27559;DHT22;15002;52.028;5.670;2024-01-27T13:08:30;10.10;99.90
27559;DHT22;15002;52.028;5.670;2024-01-27T13:10:56;10.00;99.90
27559;DHT22;15002;52.028;5.670;2024-01-27T13:13:22;10.00;99.90
27559;DHT22;15002;52.028;5.670;2024-01-27T13:15:47;10.00;99.90
27559;DHT22;15002;52.028;5.670;2024-01-27T13:18:13;10.10;99.90
27559;DHT22;15002;52.028;5.670;2024-01-27T13:20:39;10.10;99.90
27559;DHT22;15002;52.028;5.670;2024-01-27T13:23:07;10.10;99.90
27559;DHT22;15002;52.028;5.670;2024-01-27T13:25:33;10.30;99.90
27559;DHT22;15002;52.028;5.670;2024-01-27T13:27:59;10.20;99.90
27559;DHT22;15002;52.028;5.670;2024-01-27T13:30:24;10.20;99.90
27559;DHT22;15002;52.028;5.670;2024-01-27T13:32:50;9.90;99.90
27559;DHT22;15002;52.028;5.670;2024-01-27T13:35:16;9.90;99.90
27559;DHT22;15002;52.028;5.670;2024-01-27T13:37:42;9.90;99.90
27559;DHT22;15002;52.028;5.670;2024-01-27T13:40:08;10.00;99.90
27559;DHT22;15002;52.028;5.670;2024-01-27T13:42:37;10.10;99.90
27559;DHT22;15002;52.028;5.670;2024-01-27T13:45:03;10.20;99.90
27559;DHT22;15002;52.028;5.670;2024-01-27T13:47:29;10.10;99.90
27559;DHT22;15002;52.028;5.670;2024-01-27T13:49:55;10.00;99.90
27559;DHT22;15002;52.028;5.670;2024-01-27T13:52:21;10.10;99.90
27559;DHT22;15002;52.028;5.670;2024-01-27T13:54:46;10.10;99.90
27559;DHT22;15002;52.028;5.670;2024-01-27T13:57:14;10.10;99.90
27559;DHT22;15002;52.028;5.670;2024-01-27T13:59:40;10.10;99.90
27559;DHT22;15002;52.028;5.670;2024-01-27T14:02:06;10.00;99.90
27559;DHT22;15002;52.028;5.670;2024-01-27T14:04:31;10.10;99.90
27559;DHT22;15002;52.028;5.670;2024-01-27T14:06:57;9.90;99.90
27559;DHT22;15002;52.028;5.670;2024-01-27T14:09:23;10.10;99.90
27559;DHT22;15002;52.028;5.670;2024-01-27T14:11:49;10.10;99.90
27559;DHT22;15002;52.028;5.670;2024-01-27T14:14:15;10.00;99.90
27559;DHT22;15002;52.028;5.670;2024-01-27T14:16:43;9.90;99.90
27559;DHT22;15002;52.028;5.670;2024-01-27T14:19:10;10.10;99.90
27559;DHT22;15002;52.028;5.670;2024-01-27T14:21:35;10.10;99.90
27559;DHT22;15002;52.028;5.670;2024-01-27T14:24:02;10.10;99.90
27559;DHT22;15002;52.028;5.670;2024-01-27T14:26:31;10.00;99.90
27559;DHT22;15002;52.028;5.670;2024-01-27T14:28:57;10.10;99.90
27559;DHT22;15002;52.028;5.670;2024-01-27T14:31:23;10.10;99.90
27559;DHT22;15002;52.028;5.670;2024-01-27T14:33:48;10.20;99.90
27559;DHT22;15002;52.028;5.670;2024-01-27T14:36:14;10.20;99.90
27559;DHT22;15002;52.028;5.670;2024-01-27T14:38:40;10.10;99.90
27559;DHT22;15002;52.028;5.670;2024-01-27T14:41:10;10.20;99.90
27559;DHT22;15002;52.028;5.670;2024-01-27T14:43:39;10.40;99.90
27559;DHT22;15002;52.028;5.670;2024-01-27T14:46:05;10.50;99.90
27559;DHT22;15002;52.028;5.670;2024-01-27T14:48:31;10.70;99.90
27559;DHT22;15002;52.028;5.670;2024-01-27T14:50:57;10.50;99.90
27559;DHT22;15002;52.028;5.670;2024-01-27T14:53:30;10.40;99.90
27559;DHT22;15002;52.028;5.670;2024-01-27T14:55:56;10.50;99.90
27559;DHT22;15002;52.028;5.670;2024-01-27T14:58:22;10.50;99.90
27559;DHT22;15002;52.028;5.670;2024-01-27T15:00:48;10.30;99.90
27559;DHT22;15002;52.028;5.670;2024-01-27T15:03:21;10.20;99.90
27559;DHT22;15002;52.028;5.670;2024-01-27T15:05:47;10.10;99.90
27559;DHT22;15002;52.028;5.670;2024-01-27T15:08:14;10.20;99.90
27559;DHT22;15002;52.028;5.670;2024-01-27T15:10:40;10.10;99.90
27559;DHT22;15002;52.028;5.670;2024-01-27T15:13:06;10.10;99.90
27559;DHT22;15002;52.028;5.670;2024-01-27T15:15:31;10.00;99.90
27559;DHT22;15002;52.028;5.670;2024-01-27T15:17:58;9.90;99.90
27559;DHT22;15002;52.028;5.670;2024-01-27T15:20:26;10.10;99.90
27559;DHT22;15002;52.028;5.670;2024-01-27T15:22:53;10.20;99.90
27559;DHT22;15002;52.028;5.670;2024-01-27T15:25:19;10.10;99.90
27559;DHT22;15002;52.028;5.670;2024-01-27T15:27:45;10.10;99.90
27559;DHT22;15002;52.028;5.670;2024-01-27T15:30:12;9.90;99.90
27559;DHT22;15002;52.028;5.670;2024-01-27T15:32:38;9.90;99.90
27559;DHT22;15002;52.028;5.670;2024-01-27T15:35:05;9.80;99.90
27559;DHT22;15002;52.028;5.670;2024-01-27T15:37:31;9.80;99.90
27559;DHT22;15002;52.028;5.670;2024-01-27T15:39:56;9.70;99.90